Partly Cloudy Current Weather (METAR) For Manchester Airport

All times on the weather descriptions are local

Observed at 14:20 - (5 mins ago)

Partly Cloudy

16°C

Partly Cloudy
Clouds: Few Clouds at 3,100ft, Scattered Clouds at 3,700ft
Wind: 320° at 10 knots, varying from 280° to 350
Visibility: Greater than 10km
QNH: 1011
Dew Point: 8°C
Runway in Use:
Runways 23L/R - 05L/R has a direct crosswind

Sunrise Today: 05:19
Sunset Today: 21:12

Forecast Weather (TAF) For Manchester Airport

Issued at 01:00 - (1 day 10 hrs ago)


Runway in Use: Likely Runways 23L/R

Forecast valid until 01:00 on Friday

METAR/TAF RAW METAR / TAF

EGCC 291320Z 32010KT 280V350 9999 FEW031 SCT037 16/08 Q1011 NOSIG

Weather Widget

Put weather from any of our airports on your website with our weather widget.

Find Another Search

Airport Search


Please Wait Please Wait - Loading
Close
Close

Login

Username:

Password:

Remember Me:

Remember me on this computer

Forgotten your password? Get a reset password sent to your registered e-mail address

Close

User Private Message

Subject:

Message: